Time;durP1;ratioP1;P1;durP2;ratioP2;P2;SDS_P1;SDS_P2;PMS_P1;PMS_P2;Temp;Humidity;BMP_temperature;BMP_pressure;BME280_temperature;BME280_humidity;BME280_pressure;Samples;Min_cycle;Max_cycle;Signal;HPM_P1;HPM_P2
2022/09/22 00:00:29;;;;;;;25.48;22.83;;;;;;;7.47;96.10;102416.25;5013559;28;20464;-82
2022/09/22 00:02:58;;;;;;;26.17;23.48;;;;;;;7.42;96.18;102423.41;4992633;28;20032;-82
2022/09/22 00:05:25;;;;;;;26.10;23.38;;;;;;;7.42;96.26;102426.88;4992037;28;20030;-82
2022/09/22 00:07:52;;;;;;;25.10;22.45;;;;;;;7.40;96.27;102418.22;5005662;28;20064;-82
2022/09/22 00:10:20;;;;;;;25.02;22.60;;;;;;;7.36;96.09;102414.00;5029618;28;20083;-84
2022/09/22 00:12:47;;;;;;;25.23;22.63;;;;;;;7.33;96.08;102416.75;5011749;28;20079;-82
2022/09/22 00:15:13;;;;;;;25.63;23.10;;;;;;;7.28;96.07;102408.19;5026188;28;20054;-84
2022/09/22 00:17:38;;;;;;;24.90;22.13;;;;;;;7.30;96.14;102413.38;5010517;28;20358;-84
2022/09/22 00:20:05;;;;;;;24.25;21.52;;;;;;;7.30;96.10;102414.22;4995666;28;20018;-82
2022/09/22 00:22:31;;;;;;;25.30;22.77;;;;;;;7.25;96.13;102413.53;5008664;28;20044;-84
2022/09/22 00:24:57;;;;;;;24.85;22.45;;;;;;;7.21;96.33;102409.31;5010223;28;20101;-82
2022/09/22 00:27:23;;;;;;;24.73;22.25;;;;;;;7.21;96.50;102404.94;5007862;28;20470;-82
2022/09/22 00:29:50;;;;;;;24.17;21.88;;;;;;;7.17;96.24;102403.31;5009341;28;20025;-82
2022/09/22 00:32:15;;;;;;;23.73;21.55;;;;;;;7.17;96.35;102407.69;5009023;28;20266;-82
2022/09/22 00:34:40;;;;;;;24.73;22.42;;;;;;;7.12;96.31;102405.25;5015531;28;20038;-82
2022/09/22 00:37:06;;;;;;;25.65;23.13;;;;;;;7.10;96.10;102414.06;5009943;28;20028;-82
2022/09/22 00:39:31;;;;;;;26.42;23.60;;;;;;;7.08;96.45;102408.00;4996110;28;20067;-82
2022/09/22 00:41:56;;;;;;;24.58;22.15;;;;;;;7.04;96.57;102406.41;5011170;28;20154;-82
2022/09/22 00:44:25;;;;;;;24.77;22.48;;;;;;;7.03;96.72;102405.56;5011478;28;20095;-82
2022/09/22 00:46:57;;;;;;;25.58;23.27;;;;;;;7.00;96.93;102404.81;5028756;28;20048;-82
2022/09/22 00:49:39;;;;;;;25.65;23.23;;;;;;;7.00;97.00;102405.66;5010577;28;20484;-82
2022/09/22 00:52:05;;;;;;;25.17;22.77;;;;;;;6.97;96.69;102404.91;5027243;28;20216;-82
2022/09/22 00:54:30;;;;;;;28.10;21.80;;;;;;;6.96;96.58;102408.44;5027035;28;20525;-81
2022/09/22 00:57:19;;;;;;;24.70;22.33;;;;;;;6.94;96.90;102402.41;5028963;28;20381;-81
2022/09/22 00:59:46;;;;;;;25.67;23.15;;;;;;;6.91;96.73;102403.38;5028606;28;20038;-82
2022/09/22 01:02:11;;;;;;;24.85;22.42;;;;;;;6.91;96.86;102393.75;5027527;28;20401;-82
2022/09/22 01:04:38;;;;;;;25.10;22.70;;;;;;;6.90;96.48;102391.19;5011266;28;20021;-81
2022/09/22 01:07:04;;;;;;;24.73;22.33;;;;;;;6.90;96.77;102389.44;5008525;28;20112;-82
2022/09/22 01:09:33;;;;;;;24.85;22.42;;;;;;;6.88;96.83;102390.38;5027914;28;20076;-82
2022/09/22 01:12:00;;;;;;;25.30;22.95;;;;;;;6.85;96.69;102380.88;5029159;28;20060;-82
2022/09/22 01:14:31;;;;;;;25.38;22.75;;;;;;;6.83;97.20;102389.69;5010843;28;20474;-81
2022/09/22 01:17:38;;;;;;;25.73;23.25;;;;;;;6.86;97.26;102381.75;5028868;28;20033;-84
2022/09/22 01:20:33;;;;;;;25.65;23.15;;;;;;;6.87;97.37;102379.06;5023921;28;20038;-81
2022/09/22 01:23:17;;;;;;;26.33;23.38;;;;;;;6.86;97.74;102372.13;5025347;28;20022;-82
2022/09/22 01:26:11;;;;;;;25.05;22.55;;;;;;;6.82;97.21;102373.16;5028777;28;20291;-81
2022/09/22 01:29:06;;;;;;;24.77;22.50;;;;;;;6.82;97.27;102373.16;5033093;28;20040;-81
2022/09/22 01:31:44;;;;;;;23.90;21.58;;;;;;;6.75;97.70;102371.63;5015442;28;20048;-81
2022/09/22 01:35:00;;;;;;;25.45;22.90;;;;;;;6.83;97.33;102369.63;5015145;28;20528;-82
2022/09/22 01:37:43;;;;;;;23.80;21.33;;;;;;;6.73;97.31;102364.72;4951349;29;20067;-81
2022/09/22 01:40:12;;;;;;;;;;;;;;;6.89;95.93;102365.94;4951506;28;20042;-81
2022/09/22 01:42:47;;;;;;;24.58;21.98;;;;;;;6.69;97.49;102363.13;4993380;28;19913;-82
2022/09/22 01:45:18;;;;;;;25.40;22.85;;;;;;;6.66;97.18;102360.63;5012238;28;20026;-81
2022/09/22 01:47:47;;;;;;;23.92;21.73;;;;;;;6.68;96.85;102356.19;5011107;28;20095;-81
2022/09/22 01:50:27;;;;;;;23.73;21.42;;;;;;;6.61;97.20;102358.16;5031254;28;20581;-81
2022/09/22 01:52:57;;;;;;;23.65;21.08;;;;;;;6.64;96.86;102358.06;5014633;28;20392;-81
2022/09/22 01:55:35;;;;;;;23.65;21.35;;;;;;;6.61;97.32;102350.31;5032096;28;20033;-81
2022/09/22 01:58:09;;;;;;;23.67;21.48;;;;;;;6.55;97.25;102356.59;5021806;28;20034;-81
2022/09/22 02:00:39;;;;;;;24.52;22.20;;;;;;;6.53;97.70;102349.72;4994492;28;20045;-81
2022/09/22 02:03:10;;;;;;;25.27;22.70;;;;;;;6.52;97.27;102340.16;4994681;28;20494;-81
2022/09/22 02:05:48;;;;;;;25.48;22.98;;;;;;;6.56;97.64;102349.59;5012002;28;20109;-81
2022/09/22 02:08:42;;;;;;;24.70;22.40;;;;;;;6.58;97.93;102339.94;5013587;28;20033;-82
2022/09/22 02:11:12;;;;;;;24.35;21.95;;;;;;;6.46;97.76;102341.22;5013805;28;20112;-81
2022/09/22 02:13:38;;;;;;;24.45;22.15;;;;;;;6.47;97.54;102336.84;5011844;28;20449;-81
2022/09/22 02:16:06;;;;;;;24.15;21.95;;;;;;;6.50;97.80;102340.22;4993932;28;20136;-81
2022/09/22 02:18:52;;;;;;;24.02;21.92;;;;;;;6.51;98.00;102338.44;4994326;28;20125;-81
2022/09/22 02:21:19;;;;;;;24.58;22.25;;;;;;;6.44;97.62;102331.72;5029626;28;20048;-81
2022/09/22 02:23:46;;;;;;;23.95;21.65;;;;;;;6.37;97.43;102330.19;5014866;28;20029;-80
2022/09/22 02:26:16;;;;;;;23.98;21.77;;;;;;;6.36;97.97;102323.25;5031348;28;20095;-80
2022/09/22 02:28:43;;;;;;;23.35;21.20;;;;;;;6.35;98.09;102322.38;5031535;28;20632;-81
2022/09/22 02:31:11;;;;;;;23.30;21.20;;;;;;;6.32;97.67;102319.03;5015485;28;20117;-81
2022/09/22 02:33:39;;;;;;;22.55;20.15;;;;;;;6.34;97.50;102325.06;4992640;28;20026;-81
2022/09/22 02:36:27;;;;;;;22.17;20.02;;;;;;;6.29;97.99;102328.69;5022630;28;20351;-81
2022/09/22 02:39:04;;;;;;;22.77;20.45;;;;;;;6.31;97.85;102325.16;5031608;28;20453;-81
2022/09/22 02:41:53;;;;;;;22.35;20.35;;;;;;;6.27;98.01;102319.19;5032081;28;20510;-82
2022/09/22 02:44:22;;;;;;;22.27;20.35;;;;;;;6.32;97.83;102326.88;5031147;28;20391;-83
2022/09/22 02:47:11;;;;;;;22.90;20.63;;;;;;;6.35;97.89;102311.09;5010689;28;20034;-81
2022/09/22 02:49:37;;;;;;;23.55;21.33;;;;;;;6.23;97.56;102307.97;5031485;28;20080;-81
2022/09/22 02:52:07;;;;;;;23.05;20.85;;;;;;;6.20;97.87;102315.06;5031180;28;20426;-81
2022/09/22 02:54:33;;;;;;;23.63;21.38;;;;;;;6.17;97.73;102310.78;5030599;28;20108;-81
2022/09/22 02:56:58;;;;;;;22.83;20.63;;;;;;;6.17;97.53;102312.53;5013550;28;20132;-81
2022/09/22 02:59:23;;;;;;;22.17;20.08;;;;;;;6.17;97.39;102308.19;5013300;28;20029;-81
2022/09/22 03:01:49;;;;;;;23.27;21.13;;;;;;;6.15;97.57;102309.97;5012709;28;20079;-81
2022/09/22 03:04:14;;;;;;;23.30;21.20;;;;;;;6.12;97.93;102304.00;5012646;28;20282;-81
2022/09/22 03:06:39;;;;;;;22.23;20.13;;;;;;;6.10;97.49;102300.59;4996197;28;20022;-81
2022/09/22 03:09:05;;;;;;;24.30;21.83;;;;;;;6.09;97.91;102299.72;5010463;28;20105;-81
2022/09/22 03:11:30;;;;;;;23.33;21.15;;;;;;;6.10;97.60;102306.66;4993735;28;20029;-82
2022/09/22 03:13:56;;;;;;;23.45;21.27;;;;;;;6.06;97.71;102304.19;5010670;28;20033;-81
2022/09/22 03:16:21;;;;;;;23.15;21.08;;;;;;;6.06;97.78;102299.84;5014902;28;20038;-81
2022/09/22 03:18:46;;;;;;;23.90;21.67;;;;;;;6.06;97.57;102299.84;5031506;28;20018;-81
2022/09/22 03:21:12;;;;;;;23.63;21.25;;;;;;;6.00;97.85;102294.78;5029635;28;20037;-81
2022/09/22 03:23:37;;;;;;;23.20;21.00;;;;;;;6.01;97.74;102296.50;5009252;28;20021;-81
2022/09/22 03:26:02;;;;;;;23.05;20.88;;;;;;;6.01;97.82;102299.13;5010936;28;20030;-81
2022/09/22 03:28:28;;;;;;;24.40;22.13;;;;;;;5.97;97.66;102289.66;5010522;28;20018;-81
2022/09/22 03:30:54;;;;;;;24.33;22.08;;;;;;;5.96;98.04;102288.78;4993860;28;20018;-82
2022/09/22 03:33:19;;;;;;;23.65;21.35;;;;;;;5.97;97.64;102292.25;4998192;28;20032;-81
2022/09/22 03:35:44;;;;;;;24.63;22.35;;;;;;;5.93;97.64;102282.81;5012852;28;20417;-81
2022/09/22 03:38:10;;;;;;;25.55;22.90;;;;;;;5.91;98.19;102285.47;5008377;28;20030;-81
2022/09/22 03:40:35;;;;;;;25.38;22.90;;;;;;;5.91;98.16;102284.63;4993632;28;20022;-81
2022/09/22 03:43:01;;;;;;;24.80;22.40;;;;;;;5.90;98.14;102277.69;5024929;28;20026;-81
2022/09/22 03:45:26;;;;;;;24.52;22.20;;;;;;;5.88;97.97;102284.69;5011639;28;20029;-81
2022/09/22 03:47:53;;;;;;;25.25;22.63;;;;;;;5.85;98.05;102282.16;5012188;28;20300;-81
2022/09/22 03:50:18;;;;;;;24.83;22.52;;;;;;;5.84;98.22;102277.84;5029017;28;20017;-81
2022/09/22 03:52:44;;;;;;;25.20;22.90;;;;;;;5.81;98.42;102278.81;5030348;28;20477;-81
2022/09/22 03:55:12;;;;;;;25.25;22.95;;;;;;;5.79;98.16;102291.06;5029865;28;20039;-81
2022/09/22 03:57:38;;;;;;;25.95;23.38;;;;;;;5.78;97.85;102283.28;4994679;28;20026;-81
2022/09/22 04:00:05;;;;;;;25.50;23.17;;;;;;;5.75;98.25;102286.84;4992370;28;20498;-80
2022/09/22 04:02:30;;;;;;;25.38;22.85;;;;;;;5.76;98.32;102277.25;4999231;28;20511;-81
2022/09/22 04:04:58;;;;;;;25.73;23.10;;;;;;;5.72;98.32;102288.69;5029028;28;20104;-80
2022/09/22 04:07:24;;;;;;;24.80;22.67;;;;;;;5.75;98.24;102288.59;5011880;28;20029;-80
2022/09/22 04:09:49;;;;;;;24.67;22.38;;;;;;;5.74;98.00;102279.91;5012327;28;20363;-81
2022/09/22 04:12:14;;;;;;;25.23;22.65;;;;;;;5.74;98.17;102276.44;5024122;28;20611;-80
2022/09/22 04:14:39;;;;;;;25.45;23.00;;;;;;;5.70;97.80;102277.44;5010329;28;20025;-80
2022/09/22 04:17:05;;;;;;;25.13;22.58;;;;;;;5.68;97.84;102272.25;4992295;28;20065;-81
2022/09/22 04:19:34;;;;;;;24.67;22.48;;;;;;;5.67;97.91;102273.16;4995424;28;20350;-81
2022/09/22 04:21:59;;;;;;;25.02;22.77;;;;;;;5.69;97.94;102265.28;5012211;28;20063;-81
2022/09/22 04:24:25;;;;;;;24.10;22.00;;;;;;;5.62;97.97;102268.09;5011395;28;20053;-81
2022/09/22 04:26:50;;;;;;;25.55;23.10;;;;;;;5.61;97.87;102266.38;5012154;28;20029;-81
2022/09/22 04:29:16;;;;;;;24.40;22.02;;;;;;;5.59;98.17;102268.16;5027783;28;20025;-81
2022/09/22 04:31:41;;;;;;;24.63;22.40;;;;;;;5.58;98.13;102261.22;5018057;28;20036;-81
2022/09/22 04:34:06;;;;;;;24.25;22.05;;;;;;;5.60;98.49;102263.78;5011972;28;20029;-81
2022/09/22 04:36:31;;;;;;;24.02;21.73;;;;;;;5.56;98.11;102270.00;5011868;28;20044;-82
2022/09/22 04:38:57;;;;;;;24.80;22.40;;;;;;;5.55;98.56;102265.69;5011184;28;20375;-82
2022/09/22 04:41:22;;;;;;;25.08;22.52;;;;;;;5.56;98.27;102272.59;5029573;28;20035;-81
2022/09/22 04:43:48;;;;;;;24.88;22.48;;;;;;;5.59;98.48;102268.16;5029516;28;20029;-81
2022/09/22 04:46:13;;;;;;;24.27;22.15;;;;;;;5.52;98.07;102266.63;5026636;28;20029;-81
2022/09/22 04:48:38;;;;;;;23.83;21.52;;;;;;;5.53;98.51;102268.34;5027171;28;20029;-81
2022/09/22 04:51:04;;;;;;;25.42;22.75;;;;;;;5.52;97.73;102266.63;5028843;28;20022;-81
2022/09/22 04:53:29;;;;;;;23.90;21.58;;;;;;;5.51;98.36;102267.53;5010566;28;20567;-81
2022/09/22 04:55:56;;;;;;;24.55;22.30;;;;;;;5.50;98.22;102267.56;5011070;28;20437;-81
2022/09/22 04:58:21;;;;;;;25.23;22.65;;;;;;;5.51;98.22;102264.91;5029373;28;20569;-81
2022/09/22 05:00:47;;;;;;;23.92;21.73;;;;;;;5.45;98.46;102267.72;5010440;28;20049;-81
2022/09/22 05:03:12;;;;;;;24.75;22.45;;;;;;;5.45;98.59;102265.09;5011026;28;20036;-81
2022/09/22 05:05:38;;;;;;;23.98;21.65;;;;;;;5.45;98.37;102262.50;5021620;28;20038;-81
2022/09/22 05:08:04;;;;;;;24.67;22.17;;;;;;;5.48;98.07;102269.38;5008755;28;20506;-80
2022/09/22 05:10:31;;;;;;;24.73;22.27;;;;;;;5.48;97.86;102266.78;5009859;28;20613;-80
2022/09/22 05:12:57;;;;;;;24.83;22.40;;;;;;;5.44;97.81;102273.84;5016246;28;20029;-80
2022/09/22 05:15:22;;;;;;;24.40;21.95;;;;;;;5.45;97.81;102270.34;5010828;28;20321;-80
2022/09/22 05:17:49;;;;;;;24.23;22.13;;;;;;;5.41;98.11;102265.25;5011894;28;20037;-81
2022/09/22 05:20:15;;;;;;;25.55;23.15;;;;;;;5.38;98.25;102271.41;5011118;28;20390;-81
2022/09/22 05:22:41;;;;;;;26.15;23.55;;;;;;;5.37;98.46;102274.94;5024464;28;20485;-81
2022/09/22 05:25:12;;;;;;;26.10;23.63;;;;;;;5.38;98.43;102279.25;4991761;28;20041;-81
2022/09/22 05:27:45;;;;;;;25.10;22.80;;;;;;;5.39;98.59;102280.94;4991373;28;20033;-81
2022/09/22 05:30:11;;;;;;;25.80;23.30;;;;;;;5.37;98.43;102280.16;5018701;28;20013;-80
2022/09/22 05:32:37;;;;;;;25.35;22.92;;;;;;;5.33;98.55;102275.91;5011128;28;20501;-81
2022/09/22 05:35:03;;;;;;;26.33;23.80;;;;;;;5.34;98.91;102277.63;5010761;28;20100;-81
2022/09/22 05:37:28;;;;;;;25.38;22.73;;;;;;;5.34;99.00;102283.69;5011178;28;20437;-81
2022/09/22 05:39:53;;;;;;;25.70;23.20;;;;;;;5.32;98.85;102280.28;5007703;28;20022;-80
2022/09/22 05:42:20;;;;;;;25.42;23.00;;;;;;;5.34;99.25;102283.69;5008528;28;20415;-81
2022/09/22 05:44:45;;;;;;;25.65;23.20;;;;;;;5.32;99.12;102284.66;5013999;28;20027;-81
2022/09/22 05:47:10;;;;;;;24.35;21.88;;;;;;;5.34;99.30;102280.25;5028166;28;20392;-81
2022/09/22 05:49:35;;;;;;;25.08;22.42;;;;;;;5.38;99.88;102292.28;5028464;28;20017;-81
2022/09/22 05:52:01;;;;;;;24.85;22.55;;;;;;;5.36;99.67;102283.66;5011326;28;20033;-81
2022/09/22 05:54:26;;;;;;;25.08;22.80;;;;;;;5.35;99.67;102285.41;5028911;28;20033;-81
2022/09/22 05:56:51;;;;;;;25.85;23.48;;;;;;;5.38;99.27;102284.47;5008813;28;20251;-81
2022/09/22 05:59:17;;;;;;;24.65;22.35;;;;;;;5.41;99.50;102289.59;5010321;28;20350;-81
2022/09/22 06:01:42;;;;;;;25.30;22.80;;;;;;;5.43;99.59;102282.56;5029371;28;20757;-81
2022/09/22 06:04:07;;;;;;;25.33;23.02;;;;;;;5.45;99.85;102279.91;5009562;28;20021;-81
2022/09/22 06:06:33;;;;;;;25.95;23.10;;;;;;;5.45;100.00;102291.22;5028090;28;21277;-81
2022/09/22 06:08:58;;;;;;;25.58;22.98;;;;;;;5.50;99.97;102284.09;5031237;28;20022;-81
2022/09/22 06:11:24;;;;;;;26.02;23.50;;;;;;;5.50;100.00;102289.31;5031536;28;20046;-81
2022/09/22 06:13:49;;;;;;;25.42;22.90;;;;;;;5.58;100.00;102289.94;5014135;28;20559;-81
2022/09/22 06:16:15;;;;;;;26.50;23.92;;;;;;;5.60;100.00;102290.78;5031850;28;20920;-81
2022/09/22 06:18:44;;;;;;;31.00;27.95;;;;;;;5.68;100.00;102293.16;5031833;28;20421;-81
2022/09/22 06:21:09;;;;;;;31.70;28.63;;;;;;;5.75;100.00;102288.59;5015082;28;20030;-81
2022/09/22 06:23:35;;;;;;;32.70;29.60;;;;;;;5.81;100.00;102293.63;5010509;28;20021;-81
2022/09/22 06:26:00;;;;;;;39.08;34.97;;;;;;;5.97;100.00;102287.03;5013926;28;20021;-81
2022/09/22 06:28:26;;;;;;;39.42;35.63;;;;;;;6.03;100.00;102279.03;5014158;28;20025;-81
2022/09/22 06:30:51;;;;;;;35.83;32.15;;;;;;;6.02;100.00;102277.31;5030300;28;20017;-81
2022/09/22 06:33:17;;;;;;;37.85;34.15;;;;;;;6.10;100.00;102280.53;5013625;28;20033;-81
2022/09/22 06:35:44;;;;;;;37.80;34.05;;;;;;;6.18;100.00;102275.06;5032220;28;20022;-81
2022/09/22 06:38:13;;;;;;;38.65;34.42;;;;;;;6.22;100.00;102279.28;5029444;28;20025;-81
2022/09/22 06:40:40;;;;;;;39.28;35.17;;;;;;;6.27;100.00;102278.22;5014266;28;20513;-81
2022/09/22 06:43:13;;;;;;;40.00;35.95;;;;;;;6.35;100.00;102280.56;5031026;28;20104;-81
2022/09/22 06:45:39;;;;;;;42.88;38.22;;;;;;;6.47;100.00;102280.19;5028858;28;20608;-81
2022/09/22 06:48:05;;;;;;;42.22;37.97;;;;;;;6.58;100.00;102288.50;5025611;28;20084;-81
2022/09/22 06:50:31;;;;;;;44.63;39.85;;;;;;;6.70;100.00;102284.59;5031626;28;20013;-81
2022/09/22 06:53:01;;;;;;;44.78;40.30;;;;;;;6.83;100.00;102282.44;5030528;28;20025;-82
2022/09/22 06:55:28;;;;;;;43.72;39.25;;;;;;;6.95;100.00;102286.38;5031487;28;20036;-81
2022/09/22 06:57:57;;;;;;;45.70;40.55;;;;;;;7.12;100.00;102284.00;5013865;28;20083;-81
2022/09/22 07:00:30;;;;;;;42.47;37.88;;;;;;;7.31;100.00;102285.03;5030502;28;20104;-81
2022/09/22 07:03:24;;;;;;;40.58;36.22;;;;;;;7.51;100.00;102281.66;5026909;28;20017;-81
2022/09/22 07:06:00;;;;;;;36.72;32.85;;;;;;;7.75;100.00;102274.63;5009192;28;20041;-81
2022/09/22 07:08:28;;;;;;;43.65;33.50;;;;;;;7.95;100.00;102266.81;5031321;28;20508;-82
2022/09/22 07:10:57;;;;;;;40.63;31.40;;;;;;;8.16;100.00;102265.97;5031570;28;20105;-81
2022/09/22 07:13:24;;;;;;;33.97;30.20;;;;;;;8.37;100.00;102271.25;5012910;28;20374;-81
2022/09/22 07:15:50;;;;;;;34.03;29.52;;;;;;;8.60;100.00;102273.75;5013778;28;20049;-81
2022/09/22 07:18:15;;;;;;;30.98;25.95;;;;;;;8.77;100.00;102273.03;5031211;28;20760;-81
2022/09/22 07:20:44;;;;;;;31.00;25.33;;;;;;;8.96;100.00;102268.69;5030039;28;20028;-81
2022/09/22 07:23:17;;;;;;;27.73;24.92;;;;;;;9.21;100.00;102267.59;5031134;28;20025;-90
2022/09/22 07:25:51;;;;;;;25.55;22.90;;;;;;;9.35;99.59;102263.41;5032565;28;20044;-90
2022/09/22 07:28:16;;;;;;;23.98;21.38;;;;;;;9.54;98.40;102259.91;5029985;28;20027;-90
2022/09/22 07:30:42;;;;;;;23.92;20.10;;;;;;;9.73;98.14;102260.75;5031585;28;20413;-91
2022/09/22 07:33:07;;;;;;;22.23;19.10;;;;;;;9.87;97.86;102258.31;5013929;28;20076;-90
2022/09/22 07:35:35;;;;;;;21.50;19.02;;;;;;;10.01;96.47;102253.25;5030601;28;20060;-90
2022/09/22 07:38:02;;;;;;;21.38;18.08;;;;;;;10.27;95.30;102256.38;5031807;28;20496;-91
2022/09/22 07:40:27;;;;;;;20.77;16.00;;;;;;;10.38;92.51;102259.31;5013078;28;20030;-91
2022/09/22 07:42:53;;;;;;;19.23;16.38;;;;;;;10.51;92.78;102260.41;5031111;28;20037;-91
2022/09/22 07:45:18;;;;;;;20.33;15.82;;;;;;;10.67;92.73;102269.22;5013294;28;20100;-91
2022/09/22 07:50:28;;;;;;;17.75;14.60;;;;;;;11.18;91.10;102262.13;5030573;28;20063;-91
2022/09/22 07:52:54;;;;;;;16.15;14.43;;;;;;;11.38;90.96;102270.75;5031246;28;20053;-91
2022/09/22 07:55:23;;;;;;;15.60;13.13;;;;;;;11.54;88.13;102259.28;5028705;28;20051;-91
2022/09/22 07:57:53;;;;;;;17.48;13.57;;;;;;;11.59;88.25;102262.50;5013427;28;20043;-91
2022/09/22 08:00:19;;;;;;;16.58;12.73;;;;;;;11.80;86.98;102257.03;5030324;28;20033;-87
2022/09/22 08:02:51;;;;;;;13.18;11.68;;;;;;;12.07;86.20;102254.59;5030441;28;20026;-90
2022/09/22 08:05:16;;;;;;;14.07;10.90;;;;;;;12.26;85.21;102246.47;5030324;28;20074;-89
2022/09/22 08:07:42;;;;;;;15.73;10.38;;;;;;;12.39;84.58;102243.00;5031043;28;20025;-87
2022/09/22 08:10:09;;;;;;;14.52;10.05;;;;;;;12.54;80.69;102246.53;5029659;28;20079;-89
2022/09/22 08:12:36;;;;;;;10.30;9.23;;;;;;;12.73;80.20;102246.25;5011498;28;20485;-88
2022/09/22 08:15:01;;;;;;;13.73;8.65;;;;;;;12.85;79.48;102240.25;5012968;28;20084;-90
2022/09/22 08:17:26;;;;;;;11.98;8.80;;;;;;;13.06;81.00;102249.50;5029905;28;20045;-87
2022/09/22 08:19:51;;;;;;;9.13;8.10;;;;;;;13.24;76.98;102249.34;5009612;28;20026;-87
2022/09/22 08:22:17;;;;;;;12.27;8.35;;;;;;;13.38;78.54;102236.94;5010318;28;20438;-88
2022/09/22 08:24:43;;;;;;;14.90;8.55;;;;;;;13.54;76.52;102239.44;5014915;28;20029;-88
2022/09/22 08:27:12;;;;;;;12.00;8.90;;;;;;;13.79;76.95;102228.97;5030278;28;20017;-88
2022/09/22 08:29:37;;;;;;;10.38;8.63;;;;;;;14.07;74.61;102228.03;5030760;28;21034;-88
2022/09/22 08:32:02;;;;;;;14.82;9.10;;;;;;;14.10;73.85;102222.53;5029759;28;20033;-89
2022/09/22 08:34:28;;;;;;;9.45;8.52;;;;;;;14.37;73.40;102232.19;5030797;28;20033;-88
2022/09/22 08:36:54;;;;;;;9.38;7.00;;;;;;;14.55;72.02;102225.69;5030572;28;20060;-85
2022/09/22 08:39:20;;;;;;;10.27;7.60;;;;;;;14.69;75.21;102222.06;5029254;28;20029;-86
2022/09/22 08:42:06;;;;;;;16.00;7.40;;;;;;;14.94;72.69;102230.03;5012210;28;20032;-86
2022/09/22 08:44:38;;;;;;;30.25;8.05;;;;;;;15.02;68.42;102226.81;5029229;28;20026;-86
2022/09/22 08:47:04;;;;;;;11.88;6.50;;;;;;;15.20;68.05;102225.50;5011543;28;20028;-84
2022/09/22 08:52:52;;;;;;;6.25;5.63;;;;;;;15.59;69.23;102220.97;5029960;28;20407;-84
2022/09/22 08:55:23;;;;;;;7.05;5.45;;;;;;;15.60;67.25;102223.50;5028991;28;20029;-84
2022/09/22 08:58:03;;;;;;;7.25;5.28;;;;;;;15.93;63.59;102219.31;5030104;28;20040;-86
2022/09/22 09:00:42;;;;;;;7.88;5.57;;;;;;;16.13;65.35;102225.81;5011383;28;20029;-82
2022/09/22 09:03:32;;;;;;;9.90;4.82;;;;;;;16.16;62.92;102226.44;5029623;28;20047;-84
2022/09/22 09:06:03;;;;;;;8.15;4.90;;;;;;;16.43;62.63;102228.81;5008578;28;20033;-83
2022/09/22 09:08:50;;;;;;;5.72;4.50;;;;;;;16.60;61.92;102230.16;5011933;28;20385;-83
2022/09/22 09:11:37;;;;;;;6.72;4.30;;;;;;;16.71;59.29;102227.53;5028628;28;20021;-83
2022/09/22 09:14:30;;;;;;;5.95;4.03;;;;;;;17.04;64.37;102228.50;5011246;28;20029;-83
2022/09/22 09:16:59;;;;;;;5.05;3.78;;;;;;;16.92;58.45;102236.50;5011952;28;20069;-83
2022/09/22 09:19:34;;;;;;;9.13;3.72;;;;;;;17.02;59.76;102230.44;5009831;28;20449;-83
2022/09/22 09:22:05;;;;;;;6.70;3.38;;;;;;;17.08;60.95;102229.97;5021448;28;20551;-83
2022/09/22 09:24:44;;;;;;;7.40;3.00;;;;;;;17.14;58.43;102234.78;5026578;28;20029;-83
2022/09/22 09:27:19;;;;;;;4.20;3.30;;;;;;;17.19;58.19;102219.31;5028480;28;20034;-83
2022/09/22 09:29:58;;;;;;;6.50;3.35;;;;;;;17.40;58.89;102220.25;5028407;28;20025;-83
2022/09/22 09:32:47;;;;;;;5.60;3.25;;;;;;;17.42;57.14;102228.97;5027765;28;20035;-83
2022/09/22 09:35:15;;;;;;;6.80;3.97;;;;;;;17.26;56.89;102217.88;5028366;28;20047;-83
2022/09/22 09:37:43;;;;;;;8.65;3.13;;;;;;;17.42;56.75;102218.31;5029557;28;20021;-83
2022/09/22 09:40:17;;;;;;;4.25;3.10;;;;;;;17.52;54.63;102224.56;5028617;28;20109;-85
2022/09/22 09:42:46;;;;;;;4.05;3.08;;;;;;;17.72;56.32;102225.66;5029110;28;20032;-83
2022/09/22 09:45:17;;;;;;;11.07;3.50;;;;;;;17.79;55.00;102215.34;5014902;28;20079;-85
2022/09/22 09:48:06;;;;;;;6.10;4.43;;;;;;;17.71;56.25;102220.47;5031338;28;20473;-84
2022/09/22 09:50:34;;;;;;;6.43;3.92;;;;;;;17.72;55.65;102225.66;5015426;28;20018;-84
2022/09/22 09:53:00;;;;;;;5.00;3.00;;;;;;;17.98;52.77;102215.50;5033128;28;20096;-86
2022/09/22 09:55:26;;;;;;;5.28;3.17;;;;;;;18.06;54.32;102223.72;5014513;28;20120;-85
2022/09/22 10:00:29;;;;;;;6.20;3.30;;;;;;;18.00;58.39;102210.88;5033410;28;20532;-86
2022/09/22 10:00:58;;;;;;;7.20;3.08;;;;;;;17.99;53.79;102211.84;5032730;28;20041;-86
2022/09/22 10:03:34;;;;;;;4.65;3.00;;;;;;;18.21;54.39;102210.06;5013857;28;20025;-86
2022/09/22 10:06:06;;;;;;;4.05;2.92;;;;;;;18.29;51.81;102207.59;5032722;28;20844;-85
2022/09/22 10:08:43;;;;;;;5.97;3.10;;;;;;;18.30;51.83;102211.94;5032271;28;20432;-85
2022/09/22 10:11:11;;;;;;;4.95;2.80;;;;;;;18.20;49.75;102203.03;5032179;28;20104;-85
2022/09/22 10:13:38;;;;;;;6.63;2.90;;;;;;;18.14;51.58;102204.41;5032571;28;20385;-85
2022/09/22 10:16:27;;;;;;;4.35;2.92;;;;;;;18.19;53.55;102204.03;5031762;28;20160;-84
2022/09/22 10:19:01;;;;;;;5.22;2.88;;;;;;;18.36;53.64;102211.41;5044231;28;20033;-85
2022/09/22 10:21:27;;;;;;;5.25;3.38;;;;;;;18.27;51.48;102201.53;5032729;28;20021;-85
2022/09/22 10:23:58;;;;;;;5.22;3.15;;;;;;;18.46;51.06;102197.19;5014352;28;20072;-85
2022/09/22 10:26:31;;;;;;;4.22;3.00;;;;;;;18.47;53.92;102200.69;5032328;28;20087;-84
2022/09/22 10:29:16;;;;;;;4.70;2.50;;;;;;;18.55;52.22;102192.88;5010157;28;20030;-85
2022/09/22 10:32:01;;;;;;;7.32;3.33;;;;;;;18.63;52.08;102189.59;5012460;28;20414;-85
2022/09/22 10:34:33;;;;;;;5.53;3.53;;;;;;;18.52;50.85;102195.81;4995055;28;20028;-85
2022/09/22 10:37:00;;;;;;;5.80;3.30;;;;;;;18.66;49.68;102192.81;4994303;28;20504;-85
2022/09/22 10:39:31;;;;;;;5.47;3.85;;;;;;;18.69;49.84;102184.56;5012252;28;20429;-85
2022/09/22 10:42:01;;;;;;;4.80;3.30;;;;;;;18.78;50.64;102173.09;4994749;28;20029;-85
2022/09/22 10:44:28;;;;;;;5.15;2.80;;;;;;;18.95;48.96;102176.09;5007681;28;20072;-84
2022/09/22 10:47:24;;;;;;;3.80;3.17;;;;;;;19.00;52.37;102171.22;5032060;28;20371;-84
2022/09/22 10:50:08;;;;;;;3.33;1.90;;;;;;;19.17;48.51;102167.88;5014398;28;20394;-84
2022/09/22 10:52:55;;;;;;;2.30;1.80;;;;;;;19.20;50.67;102172.94;5012863;28;20481;-84
2022/09/22 10:55:33;;;;;;;3.15;2.00;;;;;;;19.27;47.78;102168.75;5009873;28;20500;-84
2022/09/22 10:58:07;;;;;;;2.92;1.88;;;;;;;19.30;47.96;102168.47;5031464;28;20584;-85
2022/09/22 11:00:34;;;;;;;2.08;1.75;;;;;;;19.34;46.12;102169.88;5028778;28;20033;-83
2022/09/22 11:03:37;;;;;;;3.33;1.58;;;;;;;19.47;48.29;102168.78;5031743;28;20104;-84
2022/09/22 11:12:31;;;;;;;4.30;1.73;;;;;;;19.44;47.25;102156.53;5030565;28;20040;-85
2022/09/22 11:15:02;;;;;;;3.92;1.90;;;;;;;19.55;47.05;102160.94;5031151;28;20080;-84
2022/09/22 11:17:46;;;;;;;4.38;2.10;;;;;;;19.58;47.11;102152.63;5029662;28;20025;-85
2022/09/22 11:20:14;;;;;;;2.08;1.50;;;;;;;19.57;45.31;102150.97;5009509;28;20030;-85
2022/09/22 11:22:50;;;;;;;3.85;1.58;;;;;;;19.68;46.33;102150.84;5012022;28;20026;-85
2022/09/22 11:25:38;;;;;;;3.60;1.70;;;;;;;19.77;46.42;102152.66;5010273;28;20160;-84
2022/09/22 11:28:03;;;;;;;2.72;1.30;;;;;;;19.76;44.96;102155.47;5009851;28;20113;-84
2022/09/22 11:30:48;;;;;;;3.97;1.50;;;;;;;19.77;45.56;102152.66;5011995;28;20457;-85
2022/09/22 11:33:42;;;;;;;2.30;1.63;;;;;;;19.75;46.33;102146.63;5010674;28;20395;-85
2022/09/22 11:36:28;;;;;;;3.85;1.60;;;;;;;19.80;45.41;102141.69;5014446;28;20022;-85
2022/09/22 11:39:18;;;;;;;4.65;1.60;;;;;;;19.66;45.46;102136.78;5011888;28;20026;-85
2022/09/22 11:42:12;;;;;;;5.30;1.40;;;;;;;19.47;47.10;102142.06;5010984;28;20053;-84
2022/09/22 11:44:42;;;;;;;3.03;1.35;;;;;;;19.17;45.75;102130.50;5016471;28;20030;-85
2022/09/22 11:47:37;;;;;;;3.55;1.30;;;;;;;19.37;47.82;102121.56;5030211;28;20426;-84